Latest Weather Observations for Mallacoota

IDV60801

Issued at 10:32 pm EDT Monday 23 October 2017 (issued every 30 minutes, with the page automatically refreshed every 10 minutes)

About weather observations | Map of weather stations | Latest weather observations for VIC | Other Formats
Station Details ID: 084084 Name: MALLACOOTA Lat: -37.60 Lon: 149.73 Height: 22.0 m
Data from the previous 72 hours. | See also: Recent months at Mallacoota
Date/Time
EDT
Temp
°C
App
Temp
°C
Dew
Point
°C
Rel
Hum
%
Delta-T
°C
Wind Press
QNH
hPa
Press
MSL
hPa
Rain since
9am
mm
Dir  Spd
km/h
Gust
km/h
Spd
kts
Gust
kts
23/10:30pm 10.9 9.1 9.3 90 0.8 W 9 11 5 6 1018.9 1018.9 0.0
23/10:00pm 11.0 9.2 9.3 89 0.8 W 9 11 5 6 1018.7 1018.7 0.0
23/09:30pm 11.1 9.3 9.4 89 0.9 WNW 9 11 5 6 1018.6 1018.6 0.0
23/09:00pm 11.1 10.9 9.0 87 1.0 CALM 0 0 0 0 1018.4 1018.4 0.0
23/08:30pm 11.5 11.3 9.2 86 1.2 CALM 0 4 0 2 1018.1 1018.1 0.0
23/08:00pm 12.1 12.0 9.5 84 1.3 CALM 0 0 0 0 1017.6 1017.6 0.0
23/07:30pm 12.9 12.8 9.5 80 1.7 CALM 0 6 0 3 1017.5 1017.5 0.0
23/07:00pm 14.3 14.1 10.3 77 2.1 SSE 2 7 1 4 1017.5 1017.5 0.0
23/06:30pm 14.8 12.9 10.6 76 2.2 S 11 17 6 9 1017.3 1017.3 0.0
23/06:00pm 14.7 12.7 10.3 75 2.3 S 11 17 6 9 1017.0 1017.0 0.0
23/05:30pm 14.9 12.6 10.5 75 2.3 S 13 19 7 10 1016.8 1016.8 0.0
23/05:00pm 15.2 12.2 10.6 74 2.4 S 17 24 9 13 1016.7 1016.7 0.0
23/04:30pm 15.1 11.1 10.5 74 2.4 S 22 28 12 15 1016.5 1016.5 0.0
23/04:00pm 15.1 11.0 10.1 72 2.6 S 22 26 12 14 1016.6 1016.6 0.0
23/03:30pm 15.7 10.5 10.2 70 2.9 S 28 33 15 18 1016.4 1016.4 0.0
23/03:00pm 16.2 11.3 9.8 66 3.3 S 26 37 14 20 1016.3 1016.3 0.0
23/02:30pm 15.9 10.2 9.8 67 3.2 S 30 39 16 21 1016.4 1016.4 0.0
23/02:00pm 16.5 12.1 10.4 67 3.2 SSW 24 35 13 19 1016.5 1016.5 0.0
23/01:30pm 17.4 13.6 11.2 67 3.4 S 22 37 12 20 1016.5 1016.5 0.0
23/01:00pm 17.2 13.4 11.0 67 3.3 S 22 37 12 20 1016.6 1016.6 0.0
23/12:30pm 16.3 11.1 10.2 67 3.2 S 28 41 15 22 1016.8 1016.8 0.0
23/12:00pm 17.6 14.0 10.7 64 3.7 SSW 20 33 11 18 1017.1 1017.1 0.0
23/11:30am 18.5 15.5 9.3 55 4.8 WSW 15 22 8 12 1017.5 1017.5 0.0
23/11:00am 17.7 14.2 8.6 55 4.7 W 17 30 9 16 1017.5 1017.5 0.0
23/10:30am 17.4 13.9 8.8 57 4.4 SW 17 30 9 16 1017.8 1017.8 0.0
23/10:00am 16.4 12.7 8.1 58 4.2 WSW 17 26 9 14 1017.8 1017.8 0.0
23/09:30am 16.0 12.7 8.2 60 3.9 SW 15 20 8 11 1017.7 1017.7 0.0
23/09:00am 15.6 11.9 8.1 61 3.8 WSW 17 28 9 15 1017.6 1017.6 0.2
23/08:30am 15.4 13.0 8.6 64 3.5 WSW 11 17 6 9 1017.5 1017.5 0.2
23/08:00am 14.6 12.6 8.8 68 2.9 WNW 9 17 5 9 1017.3 1017.3 0.2
23/07:30am 13.5 11.0 8.4 71 2.5 W 11 17 6 9 1017.2 1017.2 0.2
23/07:00am 12.6 10.5 8.1 74 2.2 WSW 9 17 5 9 1017.0 1017.0 0.2
23/06:30am 11.7 9.5 8.0 78 1.8 WNW 9 13 5 7 1016.7 1016.7 0.2
23/06:00am 11.8 9.4 8.6 81 1.6 WNW 11 19 6 10 1016.4 1016.4 0.2
23/05:30am 11.9 9.2 8.9 82 1.5 WNW 13 24 7 13 1016.3 1016.3 0.2
23/05:00am 12.0 9.4 9.4 84 1.3 WNW 13 22 7 12 1016.1 1016.1 0.2
23/04:30am 11.9 10.1 9.6 86 1.2 WNW 9 13 5 7 1016.2 1016.2 0.2
23/04:00am 11.5 10.1 9.4 87 1.1 WNW 7 11 4 6 1016.3 1016.3 0.2
23/03:30am 11.3 9.8 9.0 86 1.1 WNW 7 11 4 6 1016.4 1016.4 0.2
23/03:00am 11.8 10.0 9.5 86 1.2 W 9 15 5 8 1016.4 1016.4 0.2
23/02:30am 12.0 10.7 9.9 87 1.1 W 7 15 4 8 1016.4 1016.4 0.2
23/02:00am 11.5 9.7 9.4 87 1.1 W 9 13 5 7 1016.6 1016.6 0.2
23/01:30am 11.5 10.0 9.2 86 1.2 WNW 7 15 4 8 1016.7 1016.7 0.2
23/01:00am 11.6 10.1 9.3 86 1.2 WNW 7 11 4 6 1016.9 1016.9 0.2
23/12:30am 11.9 10.4 9.3 84 1.3 W 7 9 4 5 1017.1 1017.1 0.2
23/12:00am 12.5 10.8 10.0 85 1.3 W 9 13 5 7 1017.1 1017.1 0.2
 
Date/Time
EDT
Temp
°C
App
Temp
°C
Dew
Point
°C
Rel
Hum
%
Delta-T
°C
Wind Press
QNH
hPa
Press
MSL
hPa
Rain since
9am
mm
Dir  Spd
km/h
Gust
km/h
Spd
kts
Gust
kts
22/11:30pm 12.5 11.2 9.9 84 1.3 W 7 15 4 8 1017.2 1017.2 0.2
22/11:00pm 12.5 10.8 9.9 84 1.3 W 9 13 5 7 1017.0 1017.0 0.2
22/10:30pm 12.6 11.3 10.0 84 1.3 W 7 11 4 6 1016.9 1016.9 0.2
22/10:00pm 12.4 11.3 9.8 84 1.3 WNW 6 9 3 5 1016.7 1016.7 0.2
22/09:30pm 12.3 10.9 9.5 83 1.4 W 7 11 4 6 1016.7 1016.7 0.2
22/09:00pm 12.7 11.3 9.7 82 1.5 W 7 13 4 7 1016.5 1016.5 0.2
22/08:30pm 13.2 11.4 9.6 79 1.8 W 9 19 5 10 1016.1 1016.1 0.2
22/08:00pm 13.5 11.4 9.6 77 2.0 SW 11 22 6 12 1015.7 1015.7 0.2
22/07:30pm 13.7 11.2 9.6 76 2.1 SW 13 24 7 13 1015.3 1015.3 0.2
22/07:00pm 14.2 11.2 9.2 72 2.5 SW 15 24 8 13 1014.9 1014.9 0.2
22/06:30pm 15.2 11.9 9.6 69 2.9 SW 17 26 9 14 1014.7 1014.7 0.2
22/06:00pm 15.4 12.0 9.3 67 3.1 SW 17 24 9 13 1014.4 1014.4 0.2
22/05:30pm 15.7 11.3 9.1 65 3.4 SW 22 32 12 17 1014.1 1014.1 0.2
22/05:00pm 15.5 11.1 9.0 65 3.3 SW 22 37 12 20 1013.9 1013.9 0.2
22/04:30pm 16.6 12.9 10.0 65 3.5 SW 20 33 11 18 1013.7 1013.7 0.2
22/04:00pm 16.9 13.4 10.1 64 3.6 SW 19 32 10 17 1013.6 1013.6 0.2
22/03:30pm 15.1 11.5 11.7 80 1.8 SW 22 52 12 28 1013.7 1013.7 0.2
22/03:00pm 14.1 10.1 10.5 79 1.9 SW 22 39 12 21 1014.0 1014.0 0.0
22/02:30pm 16.5 12.9 10.6 68 3.1 SW 20 33 11 18 1014.1 1014.1 0.0
22/02:00pm 16.6 13.6 9.3 62 3.8 SW 15 24 8 13 1014.2 1014.2 0.0
22/01:30pm 15.6 11.5 8.8 64 3.5 SW 20 35 11 19 1014.5 1014.5 0.0
22/01:00pm 15.7 11.3 8.9 64 3.5 WSW 22 39 12 21 1014.5 1014.5 0.0
22/12:30pm 15.9 12.9 9.1 64 3.5 WSW 15 24 8 13 1014.6 1014.6 0.0
22/12:00pm 15.4 12.2 8.4 63 3.5 WSW 15 26 8 14 1014.9 1014.9 0.0
22/11:30am 14.6 10.6 8.3 66 3.2 WSW 19 33 10 18 1015.2 1015.2 0.0
22/11:00am 14.7 11.1 8.4 66 3.2 WSW 17 32 9 17 1015.2 1015.2 0.0
22/10:30am 15.5 12.3 8.5 63 3.6 W 15 28 8 15 1015.0 1015.0 0.0
22/10:00am 14.9 11.3 8.4 65 3.3 WSW 17 30 9 16 1015.0 1015.0 0.0
22/09:30am 14.4 10.1 7.9 65 3.2 W 20 32 11 17 1015.0 1015.0 0.0
22/09:00am 14.0 10.3 8.0 67 3.0 WSW 17 32 9 17 1015.0 1015.0 0.0
22/08:30am 13.3 9.8 7.3 67 2.9 W 15 30 8 16 1015.0 1015.0 0.0
22/08:00am 13.1 10.0 7.3 68 2.8 W 13 22 7 12 1014.9 1014.9 0.0
22/07:30am 12.5 8.6 7.0 69 2.6 W 17 30 9 16 1014.7 1014.7 0.0
22/07:00am 11.6 8.0 6.9 73 2.2 W 15 24 8 13 1014.9 1014.9 0.0
22/06:30am 10.9 7.7 6.8 76 1.9 W 13 22 7 12 1014.8 1014.8 0.0
22/06:00am 10.9 7.7 7.0 77 1.9 W 13 26 7 14 1014.5 1014.5 0.0
22/05:30am 11.0 7.8 6.9 76 1.9 W 13 24 7 13 1014.6 1014.6 0.0
22/05:00am 11.4 7.8 6.9 74 2.1 WNW 15 30 8 16 1014.7 1014.7 0.0
22/04:30am 11.4 7.8 6.7 73 2.2 W 15 24 8 13 1014.9 1014.9 0.0
22/04:00am 11.2 7.5 6.5 73 2.2 WNW 15 24 8 13 1015.0 1015.0 0.0
22/03:30am 11.4 7.7 6.3 71 2.4 W 15 22 8 12 1015.4 1015.4 0.0
22/03:00am 11.2 8.3 6.5 73 2.2 W 11 20 6 11 1015.7 1015.7 0.0
22/02:30am 11.0 7.8 6.9 76 1.9 W 13 19 7 10 1016.0 1016.0 0.0
22/02:00am 10.7 8.0 7.2 79 1.7 W 11 19 6 10 1016.3 1016.3 0.0
22/01:30am 11.2 8.6 7.9 80 1.6 W 11 20 6 11 1016.8 1016.8 0.0
22/01:00am 11.4 9.3 8.3 81 1.5 W 9 15 5 8 1017.1 1017.1 0.0
22/12:30am 11.3 9.2 8.2 81 1.5 WNW 9 15 5 8 1017.6 1017.6 0.0
22/12:00am 11.6 9.5 8.3 80 1.6 WNW 9 15 5 8 1017.8 1017.8 0.0
 
Date/Time
EDT
Temp
°C
App
Temp
°C
Dew
Point
°C
Rel
Hum
%
Delta-T
°C
Wind Press
QNH
hPa
Press
MSL
hPa
Rain since
9am
mm
Dir  Spd
km/h
Gust
km/h
Spd
kts
Gust
kts
21/11:30pm 11.9 9.8 8.4 79 1.7 WNW 9 13 5 7 1018.0 1018.0 0.0
21/11:00pm 11.9 9.8 8.2 78 1.8 WNW 9 17 5 9 1018.2 1018.2 0.0
21/10:30pm 11.9 9.8 8.2 78 1.8 WNW 9 20 5 11 1018.4 1018.4 0.0
21/10:00pm 12.0 9.4 7.9 76 2.0 WNW 11 17 6 9 1018.5 1018.5 0.0
21/09:30pm 12.1 9.5 7.8 75 2.1 WNW 11 15 6 8 1018.7 1018.7 0.0
21/09:00pm 12.2 9.9 7.5 73 2.3 WNW 9 15 5 8 1018.9 1018.9 0.0
21/08:30pm 12.5 10.2 7.6 72 2.4 W 9 17 5 9 1018.9 1018.9 0.0
21/08:00pm 12.3 9.9 7.2 71 2.5 WSW 9 17 5 9 1018.8 1018.8 0.0
21/07:30pm 12.7 9.6 7.2 69 2.7 SW 13 20 7 11 1018.7 1018.7 0.0
21/07:00pm 13.2 10.1 7.2 67 2.9 SW 13 19 7 10 1018.7 1018.7 0.0
21/06:30pm 13.6 10.1 7.2 65 3.1 SW 15 28 8 15 1018.6 1018.6 0.0
21/06:00pm 14.2 9.7 6.3 59 3.8 SW 19 39 10 21 1018.5 1018.5 0.0
21/05:30pm 15.0 11.1 5.5 53 4.5 SW 15 24 8 13 1018.5 1018.5 0.0
21/05:00pm 15.1 10.2 5.0 51 4.7 WSW 20 30 11 16 1018.7 1018.7 0.0
21/04:30pm 14.7 9.7 4.7 51 4.7 SW 20 39 11 21 1019.0 1019.0 0.0
21/04:00pm 15.0 9.8 5.5 53 4.5 SW 22 72 12 39 1019.3 1019.3 0.0
21/03:30pm 14.9 10.7 5.7 54 4.4 SW 17 30 9 16 1019.6 1019.6 0.0
21/03:00pm 15.2 10.6 5.7 53 4.5 WSW 19 28 10 15 1019.7 1019.7 0.0
21/02:30pm 15.2 11.1 6.2 55 4.3 SW 17 33 9 18 1020.0 1020.0 0.0
21/02:00pm 14.6 9.8 5.7 55 4.2 WSW 20 33 11 18 1020.4 1020.4 0.0
21/01:30pm 14.7 10.6 6.3 57 4.0 WSW 17 28 9 15 1020.7 1020.7 0.0
21/01:00pm 14.8 10.3 6.1 56 4.2 SW 19 28 10 15 1020.9 1020.9 0.0
21/12:30pm 14.9 10.4 6.2 56 4.2 WSW 19 30 10 16 1021.1 1021.1 0.0
21/12:00pm 15.6 11.5 6.3 54 4.5 W 17 28 9 15 1021.5 1021.5 0.0
21/11:30am 14.9 10.5 6.5 57 4.1 SW 19 37 10 20 1021.9 1021.9 0.0
21/11:00am 14.5 10.2 6.8 60 3.7 WSW 19 32 10 17 1022.3 1022.3 0.0
21/10:30am 13.9 9.5 6.5 61 3.6 WSW 19 28 10 15 1022.7 1022.7 0.0
21/10:00am 13.7 10.4 6.6 62 3.4 WSW 13 24 7 13 1022.9 1022.9 0.0
21/09:30am 12.4 8.3 6.2 66 2.9 WSW 17 30 9 16 1023.1 1023.1 0.0
21/09:00am 11.7 7.5 5.6 66 2.8 WSW 17 28 9 15 1023.4 1023.4 0.0
21/08:30am 11.5 7.1 4.9 64 3.0 W 17 30 9 16 1023.4 1023.4 0.0
21/08:00am 11.3 7.7 5.0 65 2.9 W 13 24 7 13 1023.4 1023.4 0.0
21/07:30am 11.0 7.3 4.5 64 2.9 W 13 24 7 13 1023.4 1023.4 0.0
21/07:00am 11.0 7.3 4.5 64 2.9 W 13 22 7 12 1023.5 1023.5 0.0
21/06:30am 10.8 7.5 4.5 65 2.8 W 11 24 6 13 1023.3 1023.3 0.0
21/06:00am 10.8 7.1 4.7 66 2.7 W 13 20 7 11 1023.1 1023.1 0.0
21/05:30am 10.9 7.3 4.8 66 2.8 W 13 22 7 12 1023.1 1023.1 0.0
21/05:00am 10.9 7.3 5.0 67 2.7 W 13 22 7 12 1023.2 1023.2 0.0
21/04:30am 10.9 7.5 5.7 70 2.4 W 13 17 7 9 1023.3 1023.3 0.0
21/04:00am 10.6 7.7 6.4 75 2.0 W 11 19 6 10 1023.6 1023.6 0.0
21/03:30am 9.9 7.4 6.4 79 1.6 WNW 9 15 5 8 1023.9 1023.9 0.0
21/03:00am 9.3 7.1 6.0 80 1.5 WNW 7 11 4 6 1024.1 1024.1 0.0
21/02:30am 9.5 7.3 6.4 81 1.4 WNW 7 11 4 6 1024.5 1024.5 0.0
21/02:00am 9.1 6.9 6.4 83 1.2 WNW 7 9 4 5 1024.9 1024.9 0.0
21/01:30am 9.4 7.2 6.1 80 1.5 W 7 11 4 6 1025.2 1025.2 0.0
21/01:00am 10.0 7.4 6.3 78 1.7 WNW 9 11 5 6 1025.5 1025.5 0.0
21/12:30am 10.4 7.9 6.5 77 1.8 W 9 11 5 6 1025.6 1025.6 0.0
21/12:00am 10.7 8.6 6.6 76 1.9 WNW 7 11 4 6 1025.8 1025.8 0.0
 
Date/Time
EDT
Temp
°C
App
Temp
°C
Dew
Point
°C
Rel
Hum
%
Delta-T
°C
Wind Press
QNH
hPa
Press
MSL
hPa
Rain since
9am
mm
Dir  Spd
km/h
Gust
km/h
Spd
kts
Gust
kts
20/11:30pm 11.2 8.6 6.3 72 2.3 W 9 13 5 7 1025.7 1025.7 0.0
20/11:00pm 11.6 9.1 6.5 71 2.4 W 9 15 5 8 1025.8 1025.8 0.0

Other Formats:

Comma delimited format used in spreadsheet applications
http://www.bom.gov.au/fwo/IDV60801/IDV60801.94935.axf

JavaScript Object Notation format (JSON) in row-major order
http://www.bom.gov.au/fwo/IDV60801/IDV60801.94935.json